Terminal Aerodrome Forecast
Issued by NWS Sterling, VA

Home | Current Version | Previous Version | Text Only | Print | Product List | Glossary On
Versions: 1 2 3 4 5 6 7 8 9 10 11 12 13 14 15 16 17 18 19 20 21 22 23
052
FTUS41 KLWX 220521
TAFBWI
TAF
KBWI 220521Z 2206/2312 20006KT P6SM BKN060 OVC130
     FM220900 22004KT 6SM -RA SCT025 OVC060
     FM221200 29010KT P6SM SCT060 SCT130
     FM221400 32015G27KT P6SM FEW060
     FM230000 32010KT P6SM SKC
     FM230900 31005KT P6SM SKC=

USA.gov is the U.S. government's official web portal to all federal, state and local government web resources and services.